Terminal Aerodrome Forecast
Issued by NWS

Home | Current Version | Previous Version | Text Only | Print | Product List | Glossary On
Versions: 1 2 3 4 5 6 7 8 9 10 11 12 13 14 15 16 17 18 19
000
FTUS43 KGLD 302320
TAFMCK
TAF
KMCK 302320Z 3100/3124 15010KT P6SM SCT060
     FM310400 11010KT P6SM SCT250
     FM311000 10007KT 4SM BR SCT015
     FM311500 12007KT P6SM SCT025=

USA.gov is the U.S. government's official web portal to all federal, state and local government web resources and services.